sensor_id;sensor_type;location;lat;lon;timestamp;temperature;humidity
8684;DHT22;4379;59.744;18.206;2024-03-23T00:52:42;2.00;99.90
8684;DHT22;4379;59.744;18.206;2024-03-23T00:55:27;1.90;99.90
8684;DHT22;4379;59.744;18.206;2024-03-23T00:57:59;1.80;99.90
8684;DHT22;4379;59.744;18.206;2024-03-23T01:00:31;1.90;99.90
8684;DHT22;4379;59.744;18.206;2024-03-23T01:03:11;1.80;99.90
8684;DHT22;4379;59.744;18.206;2024-03-23T01:05:37;1.80;99.90
8684;DHT22;4379;59.744;18.206;2024-03-23T01:08:03;1.70;99.90
8684;DHT22;4379;59.744;18.206;2024-03-23T01:10:33;1.70;99.90
8684;DHT22;4379;59.744;18.206;2024-03-23T01:13:08;1.70;99.90
8684;DHT22;4379;59.744;18.206;2024-03-23T01:15:37;1.70;99.90
8684;DHT22;4379;59.744;18.206;2024-03-23T01:18:06;1.70;99.90
8684;DHT22;4379;59.744;18.206;2024-03-23T01:20:32;1.60;99.90
8684;DHT22;4379;59.744;18.206;2024-03-23T01:22:58;1.70;99.90
8684;DHT22;4379;59.744;18.206;2024-03-23T01:25:24;1.60;99.90
8684;DHT22;4379;59.744;18.206;2024-03-23T01:27:50;1.60;99.90
8684;DHT22;4379;59.744;18.206;2024-03-23T01:30:16;1.60;99.90
8684;DHT22;4379;59.744;18.206;2024-03-23T01:32:43;1.60;99.90
8684;DHT22;4379;59.744;18.206;2024-03-23T01:35:09;1.50;99.90
8684;DHT22;4379;59.744;18.206;2024-03-23T01:37:35;1.50;99.90
8684;DHT22;4379;59.744;18.206;2024-03-23T01:40:01;1.40;99.90
8684;DHT22;4379;59.744;18.206;2024-03-23T01:42:30;1.30;99.90
8684;DHT22;4379;59.744;18.206;2024-03-23T01:44:56;1.30;99.90
8684;DHT22;4379;59.744;18.206;2024-03-23T01:47:22;1.40;99.90
8684;DHT22;4379;59.744;18.206;2024-03-23T01:49:48;1.30;99.90
8684;DHT22;4379;59.744;18.206;2024-03-23T01:52:14;1.30;99.90
8684;DHT22;4379;59.744;18.206;2024-03-23T01:54:40;1.20;99.90
8684;DHT22;4379;59.744;18.206;2024-03-23T01:57:06;1.20;99.90
8684;DHT22;4379;59.744;18.206;2024-03-23T01:59:33;1.20;99.90
8684;DHT22;4379;59.744;18.206;2024-03-23T02:01:59;1.20;99.90
8684;DHT22;4379;59.744;18.206;2024-03-23T02:04:25;1.10;99.90
8684;DHT22;4379;59.744;18.206;2024-03-23T02:06:51;1.10;99.90
8684;DHT22;4379;59.744;18.206;2024-03-23T02:09:18;1.10;99.90
8684;DHT22;4379;59.744;18.206;2024-03-23T02:11:44;1.10;99.90
8684;DHT22;4379;59.744;18.206;2024-03-23T02:14:10;1.00;99.90
8684;DHT22;4379;59.744;18.206;2024-03-23T02:16:36;1.10;99.90
8684;DHT22;4379;59.744;18.206;2024-03-23T02:19:02;1.00;99.90
8684;DHT22;4379;59.744;18.206;2024-03-23T02:21:28;1.00;99.90
8684;DHT22;4379;59.744;18.206;2024-03-23T02:23:59;1.00;99.90
8684;DHT22;4379;59.744;18.206;2024-03-23T02:26:25;1.00;99.90
8684;DHT22;4379;59.744;18.206;2024-03-23T02:28:51;1.00;99.90
8684;DHT22;4379;59.744;18.206;2024-03-23T02:31:17;1.00;99.90
8684;DHT22;4379;59.744;18.206;2024-03-23T02:33:43;1.00;99.90
8684;DHT22;4379;59.744;18.206;2024-03-23T02:36:09;1.00;99.90
8684;DHT22;4379;59.744;18.206;2024-03-23T02:38:35;1.00;99.90
8684;DHT22;4379;59.744;18.206;2024-03-23T02:41:05;1.00;99.90
8684;DHT22;4379;59.744;18.206;2024-03-23T02:43:31;1.00;99.90
8684;DHT22;4379;59.744;18.206;2024-03-23T02:45:57;0.90;99.90
8684;DHT22;4379;59.744;18.206;2024-03-23T02:48:23;0.90;99.90
8684;DHT22;4379;59.744;18.206;2024-03-23T02:50:50;0.90;99.90
8684;DHT22;4379;59.744;18.206;2024-03-23T02:53:16;0.90;99.90
8684;DHT22;4379;59.744;18.206;2024-03-23T02:55:43;0.80;99.90
8684;DHT22;4379;59.744;18.206;2024-03-23T02:58:09;0.80;99.90
8684;DHT22;4379;59.744;18.206;2024-03-23T03:00:35;0.70;99.90
8684;DHT22;4379;59.744;18.206;2024-03-23T03:03:01;0.80;99.90
8684;DHT22;4379;59.744;18.206;2024-03-23T03:05:28;0.70;99.90
8684;DHT22;4379;59.744;18.206;2024-03-23T03:07:54;0.70;99.90
8684;DHT22;4379;59.744;18.206;2024-03-23T03:10:20;0.70;99.90
8684;DHT22;4379;59.744;18.206;2024-03-23T03:12:47;0.60;99.90
8684;DHT22;4379;59.744;18.206;2024-03-23T03:15:13;0.60;99.90
8684;DHT22;4379;59.744;18.206;2024-03-23T03:17:39;0.50;99.90
8684;DHT22;4379;59.744;18.206;2024-03-23T03:20:14;0.60;99.90
8684;DHT22;4379;59.744;18.206;2024-03-23T03:22:44;0.50;99.90
8684;DHT22;4379;59.744;18.206;2024-03-23T03:25:10;0.50;99.90
8684;DHT22;4379;59.744;18.206;2024-03-23T03:27:39;0.60;99.90
8684;DHT22;4379;59.744;18.206;2024-03-23T03:30:10;0.50;99.90
8684;DHT22;4379;59.744;18.206;2024-03-23T03:32:41;0.50;99.90
8684;DHT22;4379;59.744;18.206;2024-03-23T03:35:13;0.50;99.90
8684;DHT22;4379;59.744;18.206;2024-03-23T03:37:40;0.40;99.90
8684;DHT22;4379;59.744;18.206;2024-03-23T03:40:06;0.40;99.90
8684;DHT22;4379;59.744;18.206;2024-03-23T03:42:34;0.30;99.90
8684;DHT22;4379;59.744;18.206;2024-03-23T03:45:01;0.40;99.90
8684;DHT22;4379;59.744;18.206;2024-03-23T03:47:27;0.40;99.90
8684;DHT22;4379;59.744;18.206;2024-03-23T03:49:53;0.50;99.90
8684;DHT22;4379;59.744;18.206;2024-03-23T03:52:22;0.50;99.90
8684;DHT22;4379;59.744;18.206;2024-03-23T03:54:48;0.50;99.90
8684;DHT22;4379;59.744;18.206;2024-03-23T03:57:15;0.60;99.90
8684;DHT22;4379;59.744;18.206;2024-03-23T03:59:41;0.60;99.90
8684;DHT22;4379;59.744;18.206;2024-03-23T04:02:07;0.60;99.90
8684;DHT22;4379;59.744;18.206;2024-03-23T04:04:33;0.60;99.90
8684;DHT22;4379;59.744;18.206;2024-03-23T04:07:02;0.60;99.90
8684;DHT22;4379;59.744;18.206;2024-03-23T04:09:28;0.60;99.90
8684;DHT22;4379;59.744;18.206;2024-03-23T04:11:56;0.60;99.90
8684;DHT22;4379;59.744;18.206;2024-03-23T04:14:22;0.60;99.90
8684;DHT22;4379;59.744;18.206;2024-03-23T04:16:51;0.50;99.90
8684;DHT22;4379;59.744;18.206;2024-03-23T04:19:18;0.50;99.90
8684;DHT22;4379;59.744;18.206;2024-03-23T04:21:44;0.40;99.90
8684;DHT22;4379;59.744;18.206;2024-03-23T04:24:10;0.40;99.90
8684;DHT22;4379;59.744;18.206;2024-03-23T04:26:43;0.50;99.90
8684;DHT22;4379;59.744;18.206;2024-03-23T04:29:09;0.50;99.90
8684;DHT22;4379;59.744;18.206;2024-03-23T04:31:35;0.50;99.90
8684;DHT22;4379;59.744;18.206;2024-03-23T04:34:03;0.50;99.90
8684;DHT22;4379;59.744;18.206;2024-03-23T04:36:30;0.40;99.90
8684;DHT22;4379;59.744;18.206;2024-03-23T04:38:57;0.50;99.90
8684;DHT22;4379;59.744;18.206;2024-03-23T04:41:23;0.50;99.90
8684;DHT22;4379;59.744;18.206;2024-03-23T04:43:49;0.50;99.90
8684;DHT22;4379;59.744;18.206;2024-03-23T04:46:16;0.50;99.90
8684;DHT22;4379;59.744;18.206;2024-03-23T04:48:42;0.50;99.90
8684;DHT22;4379;59.744;18.206;2024-03-23T04:51:10;0.40;99.90
8684;DHT22;4379;59.744;18.206;2024-03-23T04:53:38;0.40;99.90
8684;DHT22;4379;59.744;18.206;2024-03-23T04:56:04;0.50;99.90
8684;DHT22;4379;59.744;18.206;2024-03-23T04:58:30;0.50;99.90
8684;DHT22;4379;59.744;18.206;2024-03-23T05:00:57;0.60;99.90
8684;DHT22;4379;59.744;18.206;2024-03-23T05:03:23;0.60;99.90
8684;DHT22;4379;59.744;18.206;2024-03-23T05:05:50;0.60;99.90
8684;DHT22;4379;59.744;18.206;2024-03-23T05:08:16;0.60;99.90
8684;DHT22;4379;59.744;18.206;2024-03-23T05:10:45;0.60;99.90
8684;DHT22;4379;59.744;18.206;2024-03-23T05:13:11;0.70;99.90
8684;DHT22;4379;59.744;18.206;2024-03-23T05:15:38;0.70;99.90
8684;DHT22;4379;59.744;18.206;2024-03-23T05:18:04;0.80;99.90
8684;DHT22;4379;59.744;18.206;2024-03-23T05:20:31;0.80;99.90
8684;DHT22;4379;59.744;18.206;2024-03-23T05:22:58;0.80;99.90
8684;DHT22;4379;59.744;18.206;2024-03-23T05:25:24;0.80;99.90
8684;DHT22;4379;59.744;18.206;2024-03-23T05:27:50;0.80;99.90
8684;DHT22;4379;59.744;18.206;2024-03-23T05:30:16;0.80;99.90
8684;DHT22;4379;59.744;18.206;2024-03-23T05:32:42;0.80;99.90
8684;DHT22;4379;59.744;18.206;2024-03-23T05:35:10;0.80;99.90
8684;DHT22;4379;59.744;18.206;2024-03-23T05:37:36;0.90;99.90
8684;DHT22;4379;59.744;18.206;2024-03-23T05:40:04;0.90;99.90
8684;DHT22;4379;59.744;18.206;2024-03-23T05:42:30;0.90;99.90
8684;DHT22;4379;59.744;18.206;2024-03-23T05:44:56;1.00;99.90
8684;DHT22;4379;59.744;18.206;2024-03-23T05:47:25;1.00;99.90
8684;DHT22;4379;59.744;18.206;2024-03-23T05:49:51;1.00;99.90
8684;DHT22;4379;59.744;18.206;2024-03-23T05:52:18;1.00;99.90
8684;DHT22;4379;59.744;18.206;2024-03-23T05:54:44;1.00;99.90
8684;DHT22;4379;59.744;18.206;2024-03-23T05:57:10;1.00;99.90
8684;DHT22;4379;59.744;18.206;2024-03-23T05:59:38;1.10;99.90
8684;DHT22;4379;59.744;18.206;2024-03-23T06:02:04;1.20;99.90
8684;DHT22;4379;59.744;18.206;2024-03-23T06:04:33;1.30;99.90
8684;DHT22;4379;59.744;18.206;2024-03-23T06:06:59;1.30;99.90
8684;DHT22;4379;59.744;18.206;2024-03-23T06:09:26;1.40;99.90
8684;DHT22;4379;59.744;18.206;2024-03-23T06:11:52;1.50;99.90
8684;DHT22;4379;59.744;18.206;2024-03-23T06:14:18;1.60;99.90
8684;DHT22;4379;59.744;18.206;2024-03-23T06:16:44;1.70;99.90
8684;DHT22;4379;59.744;18.206;2024-03-23T06:19:13;1.90;99.90
8684;DHT22;4379;59.744;18.206;2024-03-23T06:21:43;2.20;99.90
8684;DHT22;4379;59.744;18.206;2024-03-23T06:24:11;2.30;99.90
8684;DHT22;4379;59.744;18.206;2024-03-23T06:26:37;2.30;99.90
8684;DHT22;4379;59.744;18.206;2024-03-23T06:29:04;2.40;99.90
8684;DHT22;4379;59.744;18.206;2024-03-23T06:31:31;2.60;99.90
8684;DHT22;4379;59.744;18.206;2024-03-23T06:33:57;2.60;99.90
8684;DHT22;4379;59.744;18.206;2024-03-23T06:36:23;2.70;99.90
8684;DHT22;4379;59.744;18.206;2024-03-23T06:38:50;2.80;99.90
8684;DHT22;4379;59.744;18.206;2024-03-23T06:41:17;3.00;99.90
8684;DHT22;4379;59.744;18.206;2024-03-23T06:43:43;3.00;99.90
8684;DHT22;4379;59.744;18.206;2024-03-23T06:46:09;3.00;99.90
8684;DHT22;4379;59.744;18.206;2024-03-23T06:48:35;3.10;99.90
8684;DHT22;4379;59.744;18.206;2024-03-23T06:51:01;3.10;99.90
8684;DHT22;4379;59.744;18.206;2024-03-23T06:53:30;3.40;99.90
8684;DHT22;4379;59.744;18.206;2024-03-23T06:55:56;3.20;99.90
8684;DHT22;4379;59.744;18.206;2024-03-23T06:58:24;3.30;99.90
8684;DHT22;4379;59.744;18.206;2024-03-23T07:00:51;3.60;99.90
8684;DHT22;4379;59.744;18.206;2024-03-23T07:03:18;3.90;99.90
8684;DHT22;4379;59.744;18.206;2024-03-23T07:05:51;3.90;99.90
8684;DHT22;4379;59.744;18.206;2024-03-23T07:08:21;4.00;99.90
8684;DHT22;4379;59.744;18.206;2024-03-23T07:10:52;4.00;99.90
8684;DHT22;4379;59.744;18.206;2024-03-23T07:13:22;3.90;99.90
8684;DHT22;4379;59.744;18.206;2024-03-23T07:15:52;4.00;99.90
8684;DHT22;4379;59.744;18.206;2024-03-23T07:18:19;4.00;99.90
8684;DHT22;4379;59.744;18.206;2024-03-23T07:20:54;3.80;99.90
8684;DHT22;4379;59.744;18.206;2024-03-23T07:23:22;3.90;99.90
8684;DHT22;4379;59.744;18.206;2024-03-23T07:25:58;3.80;99.90
8684;DHT22;4379;59.744;18.206;2024-03-23T07:28:24;3.60;99.90
8684;DHT22;4379;59.744;18.206;2024-03-23T07:31:07;3.70;99.90
8684;DHT22;4379;59.744;18.206;2024-03-23T07:33:40;3.60;99.90
8684;DHT22;4379;59.744;18.206;2024-03-23T07:36:07;3.70;99.90
8684;DHT22;4379;59.744;18.206;2024-03-23T07:38:35;3.80;99.90
8684;DHT22;4379;59.744;18.206;2024-03-23T07:43:36;4.30;99.90
8684;DHT22;4379;59.744;18.206;2024-03-23T07:46:02;4.20;99.90
8684;DHT22;4379;59.744;18.206;2024-03-23T07:48:30;4.20;99.90
8684;DHT22;4379;59.744;18.206;2024-03-23T07:53:34;5.00;99.90
8684;DHT22;4379;59.744;18.206;2024-03-23T07:56:05;5.00;99.90
8684;DHT22;4379;59.744;18.206;2024-03-23T07:58:32;5.10;99.90
8684;DHT22;4379;59.744;18.206;2024-03-23T08:01:09;5.40;99.90
8684;DHT22;4379;59.744;18.206;2024-03-23T08:03:37;6.10;99.90
8684;DHT22;4379;59.744;18.206;2024-03-23T08:08:44;6.90;99.90
8684;DHT22;4379;59.744;18.206;2024-03-23T08:11:10;7.10;99.90
8684;DHT22;4379;59.744;18.206;2024-03-23T08:13:39;6.90;99.90
8684;DHT22;4379;59.744;18.206;2024-03-23T08:16:05;6.40;99.90
8684;DHT22;4379;59.744;18.206;2024-03-23T08:18:32;6.50;99.90
8684;DHT22;4379;59.744;18.206;2024-03-23T08:21:03;6.40;99.90
8684;DHT22;4379;59.744;18.206;2024-03-23T08:23:30;5.80;99.90
8684;DHT22;4379;59.744;18.206;2024-03-23T08:26:00;5.50;99.90
8684;DHT22;4379;59.744;18.206;2024-03-23T08:28:27;5.00;99.90
8684;DHT22;4379;59.744;18.206;2024-03-23T08:30:54;5.00;99.90
8684;DHT22;4379;59.744;18.206;2024-03-23T08:33:21;4.90;99.90
8684;DHT22;4379;59.744;18.206;2024-03-23T08:35:58;4.70;99.90
8684;DHT22;4379;59.744;18.206;2024-03-23T08:38:25;4.70;99.90
8684;DHT22;4379;59.744;18.206;2024-03-23T08:41:13;5.20;99.90
8684;DHT22;4379;59.744;18.206;2024-03-23T08:43:42;6.30;99.90
8684;DHT22;4379;59.744;18.206;2024-03-23T08:46:13;7.80;99.90
8684;DHT22;4379;59.744;18.206;2024-03-23T08:48:46;7.90;99.90
8684;DHT22;4379;59.744;18.206;2024-03-23T08:51:28;7.10;99.90
8684;DHT22;4379;59.744;18.206;2024-03-23T08:54:16;6.50;99.90
8684;DHT22;4379;59.744;18.206;2024-03-23T08:56:43;6.10;99.90
8684;DHT22;4379;59.744;18.206;2024-03-23T08:59:10;7.20;99.90
8684;DHT22;4379;59.744;18.206;2024-03-23T09:01:36;7.60;99.90
8684;DHT22;4379;59.744;18.206;2024-03-23T09:04:34;10.00;99.90
8684;DHT22;4379;59.744;18.206;2024-03-23T09:07:01;10.90;99.90
8684;DHT22;4379;59.744;18.206;2024-03-23T09:09:31;11.10;99.90
8684;DHT22;4379;59.744;18.206;2024-03-23T09:12:01;11.00;99.90
8684;DHT22;4379;59.744;18.206;2024-03-23T09:14:35;11.30;99.90
8684;DHT22;4379;59.744;18.206;2024-03-23T09:17:06;10.40;99.90
8684;DHT22;4379;59.744;18.206;2024-03-23T09:19:44;9.90;99.90
8684;DHT22;4379;59.744;18.206;2024-03-23T09:22:22;8.90;99.90
8684;DHT22;4379;59.744;18.206;2024-03-23T09:24:50;8.50;99.90
8684;DHT22;4379;59.744;18.206;2024-03-23T09:27:16;7.70;99.90
8684;DHT22;4379;59.744;18.206;2024-03-23T09:29:42;7.40;99.90
8684;DHT22;4379;59.744;18.206;2024-03-23T09:32:09;7.10;99.90
8684;DHT22;4379;59.744;18.206;2024-03-23T09:34:35;6.90;99.90
8684;DHT22;4379;59.744;18.206;2024-03-23T09:37:01;6.80;99.90
8684;DHT22;4379;59.744;18.206;2024-03-23T09:39:27;6.60;99.90
8684;DHT22;4379;59.744;18.206;2024-03-23T09:41:57;6.50;99.90
8684;DHT22;4379;59.744;18.206;2024-03-23T09:44:27;6.40;99.90
8684;DHT22;4379;59.744;18.206;2024-03-23T09:46:58;6.30;99.90
8684;DHT22;4379;59.744;18.206;2024-03-23T09:49:31;6.10;99.90
8684;DHT22;4379;59.744;18.206;2024-03-23T09:52:04;6.20;99.90
8684;DHT22;4379;59.744;18.206;2024-03-23T09:54:33;6.40;99.90
8684;DHT22;4379;59.744;18.206;2024-03-23T09:57:03;6.20;99.90
8684;DHT22;4379;59.744;18.206;2024-03-23T09:59:29;6.20;99.90
8684;DHT22;4379;59.744;18.206;2024-03-23T10:01:56;6.40;99.90
8684;DHT22;4379;59.744;18.206;2024-03-23T10:04:46;6.30;99.90
8684;DHT22;4379;59.744;18.206;2024-03-23T10:07:20;6.60;99.90
8684;DHT22;4379;59.744;18.206;2024-03-23T10:09:48;6.60;99.90
8684;DHT22;4379;59.744;18.206;2024-03-23T10:12:15;6.60;99.90
8684;DHT22;4379;59.744;18.206;2024-03-23T10:14:42;6.20;99.90
8684;DHT22;4379;59.744;18.206;2024-03-23T10:17:25;6.10;99.90
8684;DHT22;4379;59.744;18.206;2024-03-23T10:20:07;6.40;99.90
8684;DHT22;4379;59.744;18.206;2024-03-23T10:22:42;6.20;99.90
8684;DHT22;4379;59.744;18.206;2024-03-23T10:25:11;6.20;99.90
8684;DHT22;4379;59.744;18.206;2024-03-23T10:28:01;6.40;99.90
8684;DHT22;4379;59.744;18.206;2024-03-23T10:30:32;6.30;99.90
8684;DHT22;4379;59.744;18.206;2024-03-23T10:33:11;6.50;99.90
8684;DHT22;4379;59.744;18.206;2024-03-23T10:35:45;6.90;99.90
8684;DHT22;4379;59.744;18.206;2024-03-23T10:38:13;6.90;99.90
8684;DHT22;4379;59.744;18.206;2024-03-23T10:40:43;7.10;99.90
8684;DHT22;4379;59.744;18.206;2024-03-23T10:43:13;7.30;99.90
8684;DHT22;4379;59.744;18.206;2024-03-23T10:45:40;7.30;99.90
8684;DHT22;4379;59.744;18.206;2024-03-23T10:48:06;7.20;99.90
8684;DHT22;4379;59.744;18.206;2024-03-23T10:50:36;7.30;99.90
8684;DHT22;4379;59.744;18.206;2024-03-23T10:53:02;7.40;99.90
8684;DHT22;4379;59.744;18.206;2024-03-23T10:55:29;7.50;99.90
8684;DHT22;4379;59.744;18.206;2024-03-23T10:57:58;7.30;99.90
8684;DHT22;4379;59.744;18.206;2024-03-23T11:00:25;7.20;99.90
8684;DHT22;4379;59.744;18.206;2024-03-23T11:02:52;7.60;99.90
8684;DHT22;4379;59.744;18.206;2024-03-23T11:05:28;7.90;99.90
8684;DHT22;4379;59.744;18.206;2024-03-23T11:07:57;8.10;99.90
8684;DHT22;4379;59.744;18.206;2024-03-23T11:10:29;8.20;99.90
8684;DHT22;4379;59.744;18.206;2024-03-23T11:15:43;8.20;99.90
8684;DHT22;4379;59.744;18.206;2024-03-23T11:18:09;7.90;99.90
8684;DHT22;4379;59.744;18.206;2024-03-23T11:20:41;7.80;99.90
8684;DHT22;4379;59.744;18.206;2024-03-23T11:23:27;8.00;99.90
8684;DHT22;4379;59.744;18.206;2024-03-23T11:25:54;8.30;99.90
8684;DHT22;4379;59.744;18.206;2024-03-23T11:28:21;8.30;99.90
8684;DHT22;4379;59.744;18.206;2024-03-23T11:30:51;8.50;99.90
8684;DHT22;4379;59.744;18.206;2024-03-23T11:33:18;8.40;99.90
8684;DHT22;4379;59.744;18.206;2024-03-23T11:35:44;8.20;99.90
8684;DHT22;4379;59.744;18.206;2024-03-23T11:38:11;8.30;99.90
8684;DHT22;4379;59.744;18.206;2024-03-23T11:40:42;8.20;99.90
8684;DHT22;4379;59.744;18.206;2024-03-23T11:43:16;7.90;99.90
8684;DHT22;4379;59.744;18.206;2024-03-23T11:48:17;7.20;99.90
8684;DHT22;4379;59.744;18.206;2024-03-23T11:50:47;7.30;99.90
8684;DHT22;4379;59.744;18.206;2024-03-23T11:53:16;7.40;99.90
8684;DHT22;4379;59.744;18.206;2024-03-23T11:55:56;7.50;99.90
8684;DHT22;4379;59.744;18.206;2024-03-23T11:58:26;7.50;99.90
8684;DHT22;4379;59.744;18.206;2024-03-23T12:03:19;7.50;99.90
8684;DHT22;4379;59.744;18.206;2024-03-23T12:05:52;7.70;99.90
8684;DHT22;4379;59.744;18.206;2024-03-23T12:08:39;7.60;99.90
8684;DHT22;4379;59.744;18.206;2024-03-23T12:11:16;7.60;99.90
8684;DHT22;4379;59.744;18.206;2024-03-23T12:13:43;7.70;99.90
8684;DHT22;4379;59.744;18.206;2024-03-23T12:16:16;7.70;99.90
8684;DHT22;4379;59.744;18.206;2024-03-23T12:18:44;8.00;99.90
8684;DHT22;4379;59.744;18.206;2024-03-23T12:21:11;7.90;99.90
8684;DHT22;4379;59.744;18.206;2024-03-23T12:23:41;8.10;99.90
8684;DHT22;4379;59.744;18.206;2024-03-23T12:26:08;8.10;99.90
8684;DHT22;4379;59.744;18.206;2024-03-23T12:28:34;8.10;99.90
8684;DHT22;4379;59.744;18.206;2024-03-23T12:31:00;7.90;99.90
8684;DHT22;4379;59.744;18.206;2024-03-23T12:33:26;7.80;99.90
8684;DHT22;4379;59.744;18.206;2024-03-23T12:35:56;7.50;99.90
8684;DHT22;4379;59.744;18.206;2024-03-23T12:38:22;7.60;99.90
8684;DHT22;4379;59.744;18.206;2024-03-23T12:40:49;7.70;99.90
8684;DHT22;4379;59.744;18.206;2024-03-23T12:43:17;8.00;99.90
8684;DHT22;4379;59.744;18.206;2024-03-23T12:45:47;8.10;99.90
8684;DHT22;4379;59.744;18.206;2024-03-23T12:48:13;8.00;99.90
8684;DHT22;4379;59.744;18.206;2024-03-23T12:50:42;8.10;99.90
8684;DHT22;4379;59.744;18.206;2024-03-23T12:53:08;8.20;99.90
8684;DHT22;4379;59.744;18.206;2024-03-23T12:55:38;8.40;99.90
8684;DHT22;4379;59.744;18.206;2024-03-23T12:58:05;8.30;99.90
8684;DHT22;4379;59.744;18.206;2024-03-23T13:00:31;8.20;99.90
8684;DHT22;4379;59.744;18.206;2024-03-23T13:02:58;8.40;99.90
8684;DHT22;4379;59.744;18.206;2024-03-23T13:05:24;8.40;99.90
8684;DHT22;4379;59.744;18.206;2024-03-23T13:07:50;8.40;99.90
8684;DHT22;4379;59.744;18.206;2024-03-23T13:10:16;8.30;99.90
8684;DHT22;4379;59.744;18.206;2024-03-23T13:12:42;8.40;99.90
8684;DHT22;4379;59.744;18.206;2024-03-23T13:15:08;8.50;99.90
8684;DHT22;4379;59.744;18.206;2024-03-23T13:17:35;8.60;99.90
8684;DHT22;4379;59.744;18.206;2024-03-23T13:20:01;8.50;99.90
8684;DHT22;4379;59.744;18.206;2024-03-23T13:22:29;8.30;99.90
8684;DHT22;4379;59.744;18.206;2024-03-23T13:24:56;8.40;99.90
8684;DHT22;4379;59.744;18.206;2024-03-23T13:27:24;8.40;99.90
8684;DHT22;4379;59.744;18.206;2024-03-23T13:30:03;8.70;99.90
8684;DHT22;4379;59.744;18.206;2024-03-23T13:32:33;8.80;99.90
8684;DHT22;4379;59.744;18.206;2024-03-23T13:35:02;9.00;99.90
8684;DHT22;4379;59.744;18.206;2024-03-23T13:37:31;8.90;99.90
8684;DHT22;4379;59.744;18.206;2024-03-23T13:40:00;8.90;99.90
8684;DHT22;4379;59.744;18.206;2024-03-23T13:42:27;8.60;99.90
8684;DHT22;4379;59.744;18.206;2024-03-23T13:44:53;8.60;99.90
8684;DHT22;4379;59.744;18.206;2024-03-23T13:47:19;8.70;99.90
8684;DHT22;4379;59.744;18.206;2024-03-23T13:49:45;8.40;99.90
8684;DHT22;4379;59.744;18.206;2024-03-23T13:52:12;8.40;99.90
8684;DHT22;4379;59.744;18.206;2024-03-23T13:54:38;8.10;99.90
8684;DHT22;4379;59.744;18.206;2024-03-23T13:57:07;8.10;99.90
8684;DHT22;4379;59.744;18.206;2024-03-23T13:59:34;8.00;99.90
8684;DHT22;4379;59.744;18.206;2024-03-23T14:02:00;8.00;99.90
8684;DHT22;4379;59.744;18.206;2024-03-23T14:04:27;7.80;99.90
8684;DHT22;4379;59.744;18.206;2024-03-23T14:06:53;7.70;99.90
8684;DHT22;4379;59.744;18.206;2024-03-23T14:09:19;7.70;99.90
8684;DHT22;4379;59.744;18.206;2024-03-23T14:11:49;7.70;99.90
8684;DHT22;4379;59.744;18.206;2024-03-23T14:14:15;7.80;99.90
8684;DHT22;4379;59.744;18.206;2024-03-23T14:16:44;7.80;99.90
8684;DHT22;4379;59.744;18.206;2024-03-23T14:19:10;7.90;99.90
8684;DHT22;4379;59.744;18.206;2024-03-23T14:21:36;7.90;99.90
8684;DHT22;4379;59.744;18.206;2024-03-23T14:24:02;7.70;99.90
8684;DHT22;4379;59.744;18.206;2024-03-23T14:26:29;7.70;99.90
8684;DHT22;4379;59.744;18.206;2024-03-23T14:28:55;7.80;99.90
8684;DHT22;4379;59.744;18.206;2024-03-23T14:31:22;7.90;99.90
8684;DHT22;4379;59.744;18.206;2024-03-23T14:33:49;7.90;99.90
8684;DHT22;4379;59.744;18.206;2024-03-23T14:36:16;8.20;99.90
8684;DHT22;4379;59.744;18.206;2024-03-23T14:38:49;8.30;99.90
8684;DHT22;4379;59.744;18.206;2024-03-23T14:41:16;8.40;99.90
8684;DHT22;4379;59.744;18.206;2024-03-23T14:43:42;8.40;99.90
8684;DHT22;4379;59.744;18.206;2024-03-23T14:46:11;8.50;99.90
8684;DHT22;4379;59.744;18.206;2024-03-23T14:48:39;8.40;99.90
8684;DHT22;4379;59.744;18.206;2024-03-23T14:51:08;8.30;99.90
8684;DHT22;4379;59.744;18.206;2024-03-23T14:53:37;8.30;99.90
8684;DHT22;4379;59.744;18.206;2024-03-23T14:56:04;8.30;99.90
8684;DHT22;4379;59.744;18.206;2024-03-23T14:58:30;8.20;99.90
8684;DHT22;4379;59.744;18.206;2024-03-23T15:01:06;8.30;99.90
8684;DHT22;4379;59.744;18.206;2024-03-23T15:03:39;8.50;99.90
8684;DHT22;4379;59.744;18.206;2024-03-23T15:06:06;8.60;99.90
8684;DHT22;4379;59.744;18.206;2024-03-23T15:08:35;8.50;99.90
8684;DHT22;4379;59.744;18.206;2024-03-23T15:11:02;8.60;99.90
8684;DHT22;4379;59.744;18.206;2024-03-23T15:13:33;8.30;99.90
8684;DHT22;4379;59.744;18.206;2024-03-23T15:15:59;8.20;99.90
8684;DHT22;4379;59.744;18.206;2024-03-23T15:18:27;8.10;99.90
8684;DHT22;4379;59.744;18.206;2024-03-23T15:20:57;8.00;99.90
8684;DHT22;4379;59.744;18.206;2024-03-23T15:23:23;7.80;99.90
8684;DHT22;4379;59.744;18.206;2024-03-23T15:26:00;7.70;99.90
8684;DHT22;4379;59.744;18.206;2024-03-23T15:28:27;7.80;99.90
8684;DHT22;4379;59.744;18.206;2024-03-23T15:31:08;7.80;99.90
8684;DHT22;4379;59.744;18.206;2024-03-23T15:33:35;7.80;99.90
8684;DHT22;4379;59.744;18.206;2024-03-23T15:36:05;7.50;99.90
8684;DHT22;4379;59.744;18.206;2024-03-23T15:38:31;7.40;99.90
8684;DHT22;4379;59.744;18.206;2024-03-23T15:40:58;7.50;99.90
8684;DHT22;4379;59.744;18.206;2024-03-23T15:43:25;7.30;99.90
8684;DHT22;4379;59.744;18.206;2024-03-23T15:45:55;7.30;99.90
8684;DHT22;4379;59.744;18.206;2024-03-23T15:48:21;7.10;99.90
8684;DHT22;4379;59.744;18.206;2024-03-23T15:50:52;7.10;99.90
8684;DHT22;4379;59.744;18.206;2024-03-23T15:53:21;7.00;99.90
8684;DHT22;4379;59.744;18.206;2024-03-23T15:56:08;6.90;99.90
8684;DHT22;4379;59.744;18.206;2024-03-23T15:58:34;6.80;99.90
8684;DHT22;4379;59.744;18.206;2024-03-23T16:01:04;6.90;99.90
8684;DHT22;4379;59.744;18.206;2024-03-23T16:03:32;6.90;99.90
8684;DHT22;4379;59.744;18.206;2024-03-23T16:06:00;6.80;99.90
8684;DHT22;4379;59.744;18.206;2024-03-23T16:08:30;6.70;99.90
8684;DHT22;4379;59.744;18.206;2024-03-23T16:11:03;6.40;99.90
8684;DHT22;4379;59.744;18.206;2024-03-23T16:13:31;6.30;99.90
8684;DHT22;4379;59.744;18.206;2024-03-23T16:15:58;6.30;99.90
8684;DHT22;4379;59.744;18.206;2024-03-23T16:18:24;6.20;99.90
8684;DHT22;4379;59.744;18.206;2024-03-23T16:20:59;6.10;99.90
8684;DHT22;4379;59.744;18.206;2024-03-23T16:23:25;6.00;99.90
8684;DHT22;4379;59.744;18.206;2024-03-23T16:25:53;5.90;99.90
8684;DHT22;4379;59.744;18.206;2024-03-23T16:28:30;5.90;99.90
8684;DHT22;4379;59.744;18.206;2024-03-23T16:31:16;5.70;99.90
8684;DHT22;4379;59.744;18.206;2024-03-23T16:33:43;5.60;99.90
8684;DHT22;4379;59.744;18.206;2024-03-23T16:36:11;5.60;99.90
8684;DHT22;4379;59.744;18.206;2024-03-23T16:38:41;5.40;99.90
8684;DHT22;4379;59.744;18.206;2024-03-23T16:41:13;5.40;99.90
8684;DHT22;4379;59.744;18.206;2024-03-23T16:43:42;5.30;99.90
8684;DHT22;4379;59.744;18.206;2024-03-23T16:46:13;5.20;99.90
8684;DHT22;4379;59.744;18.206;2024-03-23T16:48:42;5.20;99.90
8684;DHT22;4379;59.744;18.206;2024-03-23T16:51:10;5.10;99.90
8684;DHT22;4379;59.744;18.206;2024-03-23T16:53:36;5.00;99.90
8684;DHT22;4379;59.744;18.206;2024-03-23T16:56:09;5.00;99.90
8684;DHT22;4379;59.744;18.206;2024-03-23T16:58:36;4.90;99.90
8684;DHT22;4379;59.744;18.206;2024-03-23T17:01:06;4.70;99.90
8684;DHT22;4379;59.744;18.206;2024-03-23T17:03:38;4.70;99.90
8684;DHT22;4379;59.744;18.206;2024-03-23T17:06:10;4.70;99.90
8684;DHT22;4379;59.744;18.206;2024-03-23T17:08:36;4.70;99.90
8684;DHT22;4379;59.744;18.206;2024-03-23T17:11:03;4.60;99.90
8684;DHT22;4379;59.744;18.206;2024-03-23T17:13:35;4.50;99.90
8684;DHT22;4379;59.744;18.206;2024-03-23T17:16:03;4.40;99.90
8684;DHT22;4379;59.744;18.206;2024-03-23T17:18:32;4.30;99.90